Terminal Aerodrome Forecast
Issued by NWS

Home | Current Version | Previous Version | Graphics & Text | Print | Product List | Glossary On
Versions: 1 2 3 4 5 6 7 8 9 10 11 12 13
000
FTUS43 KICT 270522
TAFRSL
TAF
KRSL 270522Z 2706/2806 13007KT P6SM SKC
     FM271500 15011KT P6SM SCT020
     FM271700 17014KT P6SM BKN025
     FM272100 18015G22KT P6SM SCT035
     FM280000 17011KT P6SM FEW025=

USA.gov is the U.S. government's official web portal to all federal, state and local government web resources and services.